Airfield :
LOGIN :

Register | Disclaimer

   EN    FR    IT 

 










Legend :    VFR   Marginal VFR   IFR   Intensive IFR   Very Intensive IFR
Visi :
Ceiling :
>= 8 km
>= 3000ft
5 to 8 km
1000 to 3000 ft
1500m to 5 km
500 to 1000 ft
800 to 1500m
200 to 500 ft
< 800m
< 200 ft
Symbols :   Thunderstorms  Fog  Heavy snow  Heavy precipitations  Wind > 20 kt
SIGMETs :     Misc.  Thunderstorms  Icing  Turbulence  Mountain Waves  Volcanic Ashes






- Airport Elevation : 65 ft
- IATA code : PIK


EGPK - Glasgow Prestwick

CURRENT METAR :
  • 071020Z 25017KT 9999 FEW020 SCT023 13/08 Q1008

EXPIRED METARs :
  • 070950Z 26016KT 9999 FEW018 SCT022 12/08 Q1008
  • 070920Z 25016KT 9999 -RA SCT018 BKN022 12/09 Q1007
  • 070850Z 24016KT 9999 FEW021 SCT032 13/09 Q1007
  • 070820Z 24015KT 9999 FEW021 SCT032 13/09 Q1007
  • 070750Z 24017KT 9999 FEW021 SCT045 13/09 Q1007

TAF TAF EGPK
Valid from the 07 at 06:00 until the 08 at 06:00 UTC


070454Z 0706/0806 25012KT 9999 FEW035 SCT045
TEMPO 0706/0721 26015G25KT 5000 SHRA
PROB30
TEMPO 0709/0718 3000 +SHRA



MET'MAP, your aeronautical weather chart ! - Copyright ORBIFLY December 2007 - Disclaimer

ORBIFLY MET'MAP TEAM :

Programming & Development : Alexandra Zaïnal
Original concept : Baudouin d'Aumeries
Technical & hardware support : Manuel Goepfert
Assistance : Marc-Olivier Méhu




SOURCES & CREDITS :

   NOAA